Time;durP1;ratioP1;P1;durP2;ratioP2;P2;SDS_P1;SDS_P2;PMS_P1;PMS_P2;Temp;Humidity;BMP_temperature;BMP_pressure;BME280_temperature;BME280_humidity;BME280_pressure;Samples;Min_cycle;Max_cycle;Signal;HPM_P1;HPM_P2
2021/03/03 00:02:01;;;;;;;21.30;9.70;;;9.50;59.90;;;;;;5031273;28;20391;-87
2021/03/03 00:04:27;;;;;;;19.97;9.73;;;9.80;59.20;;;;;;5031405;28;20387;-85
2021/03/03 00:06:52;;;;;;;21.67;9.07;;;9.70;59.30;;;;;;5031766;28;20415;-88
2021/03/03 00:09:19;;;;;;;20.73;8.63;;;9.60;59.40;;;;;;5032168;28;20433;-86
2021/03/03 00:11:44;;;;;;;23.58;9.30;;;9.50;59.80;;;;;;5031249;28;20457;-88
2021/03/03 00:14:10;;;;;;;23.73;9.85;;;9.70;59.20;;;;;;5032212;28;20840;-87
2021/03/03 00:16:36;;;;;;;20.48;9.50;;;9.50;59.70;;;;;;5032061;28;20840;-86
2021/03/03 00:19:01;;;;;;;24.45;9.48;;;9.60;59.70;;;;;;5030884;28;20860;-87
2021/03/03 00:21:27;;;;;;;22.88;8.70;;;9.60;59.40;;;;;;5032224;28;20380;-86
2021/03/03 00:23:53;;;;;;;19.75;9.35;;;9.40;59.80;;;;;;5030807;28;20768;-88
2021/03/03 00:26:18;;;;;;;18.45;9.02;;;9.30;60.50;;;;;;5031774;28;20379;-87
2021/03/03 00:28:46;;;;;;;21.50;9.13;;;9.40;59.80;;;;;;5029900;28;20414;-86
2021/03/03 00:31:12;;;;;;;19.90;8.43;;;9.40;60.20;;;;;;5030575;28;20402;-87
2021/03/03 00:33:37;;;;;;;20.77;9.63;;;9.30;60.40;;;;;;5031500;28;20393;-87
2021/03/03 00:36:03;;;;;;;20.80;9.10;;;9.10;61.40;;;;;;5031634;28;20572;-87
2021/03/03 00:38:28;;;;;;;23.57;9.60;;;9.10;61.00;;;;;;5029986;28;20418;-86
2021/03/03 00:40:54;;;;;;;26.77;8.53;;;9.30;60.40;;;;;;5029617;28;20391;-86
2021/03/03 00:43:20;;;;;;;23.67;9.75;;;9.30;60.50;;;;;;5031486;28;20371;-88
2021/03/03 00:45:45;;;;;;;20.10;9.48;;;9.10;61.00;;;;;;5030151;28;20423;-85
2021/03/03 00:48:11;;;;;;;21.80;9.20;;;9.20;60.80;;;;;;5029928;28;20729;-87
2021/03/03 00:50:37;;;;;;;24.20;9.45;;;9.10;61.00;;;;;;5031397;28;20460;-87
2021/03/03 00:53:03;;;;;;;25.33;10.07;;;9.00;61.50;;;;;;5031183;28;20386;-87
2021/03/03 00:55:28;;;;;;;23.45;9.30;;;8.80;62.30;;;;;;5029454;28;20848;-86
2021/03/03 00:57:54;;;;;;;22.00;9.40;;;9.00;61.60;;;;;;5030916;28;20494;-87
2021/03/03 01:00:20;;;;;;;23.40;9.38;;;8.90;61.90;;;;;;5031169;28;20406;-86
2021/03/03 01:02:45;;;;;;;19.98;9.30;;;8.90;62.10;;;;;;5031250;28;20445;-87
2021/03/03 01:05:11;;;;;;;20.65;9.68;;;8.90;61.90;;;;;;5031063;28;20379;-87
2021/03/03 01:07:37;;;;;;;25.95;9.75;;;8.90;62.00;;;;;;5029430;28;20383;-87
2021/03/03 01:10:03;;;;;;;21.05;8.77;;;8.80;62.30;;;;;;5029541;28;20416;-87
2021/03/03 01:12:28;;;;;;;22.42;9.10;;;8.70;62.60;;;;;;5029583;28;20484;-87
2021/03/03 01:14:54;;;;;;;22.00;9.40;;;8.50;63.20;;;;;;5031233;28;20471;-86
2021/03/03 01:17:19;;;;;;;23.58;9.65;;;8.60;63.00;;;;;;5030759;28;20429;-87
2021/03/03 01:19:45;;;;;;;23.80;9.00;;;8.90;61.90;;;;;;5030856;28;20395;-87
2021/03/03 01:22:10;;;;;;;23.03;9.57;;;8.60;62.70;;;;;;5031017;28;20387;-88
2021/03/03 01:24:36;;;;;;;20.00;8.60;;;8.80;62.10;;;;;;5031069;28;20450;-86
2021/03/03 01:27:01;;;;;;;23.37;9.70;;;8.90;61.50;;;;;;5030699;28;20381;-87
2021/03/03 01:29:27;;;;;;;26.85;9.27;;;8.90;61.50;;;;;;5029678;28;20792;-87
2021/03/03 01:31:52;;;;;;;24.10;9.32;;;9.10;60.50;;;;;;5030818;28;20805;-87
2021/03/03 01:34:18;;;;;;;19.77;9.10;;;9.10;60.50;;;;;;5029656;28;20466;-86
2021/03/03 01:36:43;;;;;;;25.00;9.63;;;9.10;60.10;;;;;;5030260;28;20384;-87
2021/03/03 01:39:09;;;;;;;23.73;9.37;;;9.20;60.10;;;;;;5029733;28;20416;-87
2021/03/03 01:41:34;;;;;;;24.52;9.57;;;9.10;60.00;;;;;;5030837;28;20431;-87
2021/03/03 01:44:00;;;;;;;23.67;9.23;;;9.10;59.70;;;;;;5030511;28;20437;-87
2021/03/03 01:46:25;;;;;;;24.37;10.17;;;9.00;60.10;;;;;;5030523;28;20732;-88
2021/03/03 01:48:51;;;;;;;21.43;9.03;;;9.10;60.00;;;;;;5028792;28;20399;-86
2021/03/03 01:51:18;;;;;;;21.40;9.33;;;9.20;59.40;;;;;;5029458;28;20395;-86
2021/03/03 01:53:43;;;;;;;25.13;9.52;;;9.00;60.00;;;;;;5029299;28;20383;-87
2021/03/03 01:56:11;;;;;;;20.67;8.45;;;8.90;60.30;;;;;;5030722;28;20882;-86
2021/03/03 01:58:36;;;;;;;21.95;9.55;;;8.90;60.30;;;;;;5030062;28;20389;-87
2021/03/03 02:01:02;;;;;;;21.03;9.03;;;9.00;59.90;;;;;;5029488;28;20391;-87
2021/03/03 02:03:28;;;;;;;19.63;8.85;;;8.90;60.10;;;;;;5029281;28;20394;-87
2021/03/03 02:05:58;;;;;;;23.07;9.63;;;9.10;59.50;;;;;;5031369;28;20406;-87
2021/03/03 02:08:34;;;;;;;26.65;9.13;;;8.90;60.10;;;;;;5032541;28;20398;-86
2021/03/03 02:11:05;;;;;;;20.90;9.45;;;9.00;59.90;;;;;;5034271;28;20422;-87
2021/03/03 02:13:39;;;;;;;21.35;9.95;;;8.90;60.20;;;;;;5034516;28;20391;-87
2021/03/03 02:16:07;;;;;;;19.48;9.68;;;8.80;60.60;;;;;;5033153;28;20486;-88
2021/03/03 02:18:35;;;;;;;24.73;9.43;;;8.90;60.40;;;;;;5034114;28;20393;-87
2021/03/03 02:21:05;;;;;;;23.43;9.67;;;8.70;61.10;;;;;;5033068;28;20422;-86
2021/03/03 02:23:55;;;;;;;22.80;9.35;;;8.60;61.40;;;;;;5033072;28;20391;-87
2021/03/03 02:26:33;;;;;;;24.33;10.57;;;8.50;61.90;;;;;;5033106;28;20618;-87
2021/03/03 02:29:01;;;;;;;23.88;9.23;;;8.60;61.70;;;;;;5032640;28;20828;-88
2021/03/03 02:31:27;;;;;;;28.92;8.95;;;8.60;61.50;;;;;;5034426;28;20502;-88
2021/03/03 02:33:53;;;;;;;23.55;9.85;;;8.60;61.20;;;;;;5032711;28;20474;-88
2021/03/03 02:36:22;;;;;;;20.00;9.60;;;8.80;60.80;;;;;;5034556;28;20387;-86
2021/03/03 02:38:47;;;;;;;26.90;10.18;;;8.70;60.70;;;;;;5032304;28;20399;-87
2021/03/03 02:41:16;;;;;;;24.70;10.07;;;8.70;60.60;;;;;;5034128;28;20383;-87
2021/03/03 02:43:43;;;;;;;24.42;9.77;;;8.60;61.20;;;;;;5032613;28;20792;-87
2021/03/03 02:46:09;;;;;;;23.45;9.82;;;8.60;61.10;;;;;;5032298;28;20388;-88
2021/03/03 02:48:35;;;;;;;23.88;9.07;;;8.60;61.00;;;;;;5033230;28;20425;-87
2021/03/03 02:51:01;;;;;;;24.43;9.27;;;8.60;61.20;;;;;;5033687;28;20459;-87
2021/03/03 02:53:27;;;;;;;22.20;9.48;;;8.40;61.60;;;;;;5032591;28;20896;-87
2021/03/03 02:55:52;;;;;;;23.10;9.33;;;8.50;61.50;;;;;;5032257;28;20429;-86
2021/03/03 02:58:20;;;;;;;22.10;9.50;;;8.20;62.50;;;;;;5033464;28;20375;-87
2021/03/03 03:00:47;;;;;;;20.17;8.73;;;8.30;62.40;;;;;;5033477;28;20420;-86
2021/03/03 03:03:35;;;;;;;22.50;9.15;;;8.30;62.20;;;;;;5032486;28;20395;-86
2021/03/03 03:06:08;;;;;;;22.73;9.60;;;8.30;62.10;;;;;;5031914;28;20413;-87
2021/03/03 03:08:37;;;;;;;25.30;9.33;;;8.50;61.40;;;;;;5033194;28;20852;-88
2021/03/03 03:11:05;;;;;;;23.42;9.70;;;8.10;62.50;;;;;;5031811;28;20446;-87
2021/03/03 03:13:33;;;;;;;24.38;8.57;;;8.30;61.90;;;;;;5033249;28;20418;-86
2021/03/03 03:16:00;;;;;;;21.05;8.90;;;8.20;62.40;;;;;;5033149;28;20387;-87
2021/03/03 03:18:33;;;;;;;20.85;9.25;;;8.00;63.10;;;;;;5030800;28;20430;-87
2021/03/03 03:20:59;;;;;;;22.00;9.60;;;7.90;63.70;;;;;;5033306;28;20423;-87
2021/03/03 03:23:26;;;;;;;23.40;8.93;;;7.90;63.70;;;;;;5032763;28;20474;-86
2021/03/03 03:25:56;;;;;;;24.98;9.50;;;8.10;62.90;;;;;;5031885;28;20474;-87
2021/03/03 03:28:23;;;;;;;24.50;9.57;;;8.00;63.00;;;;;;5031091;28;20407;-87
2021/03/03 03:30:50;;;;;;;26.83;10.27;;;7.90;63.50;;;;;;5033047;28;20887;-87
2021/03/03 03:33:17;;;;;;;22.23;9.50;;;7.90;63.30;;;;;;5032718;28;20458;-87
2021/03/03 03:35:43;;;;;;;23.25;9.40;;;7.80;63.80;;;;;;5032886;28;20867;-87
2021/03/03 03:38:09;;;;;;;21.45;9.90;;;7.70;64.30;;;;;;5030858;28;20395;-87
2021/03/03 03:40:34;;;;;;;25.63;9.65;;;7.40;65.10;;;;;;5031673;28;20399;-87
2021/03/03 03:43:01;;;;;;;20.93;9.97;;;7.30;65.50;;;;;;5032654;28;20441;-86
2021/03/03 03:45:28;;;;;;;25.90;9.43;;;7.50;64.90;;;;;;5032526;28;20383;-87
2021/03/03 03:47:56;;;;;;;26.88;9.85;;;7.30;65.70;;;;;;5032307;28;20382;-87
2021/03/03 03:50:22;;;;;;;23.40;9.25;;;7.40;65.20;;;;;;5031038;28;20415;-87
2021/03/03 03:52:52;;;;;;;23.17;9.40;;;7.30;65.70;;;;;;5032916;28;20387;-87
2021/03/03 03:55:18;;;;;;;26.52;9.15;;;7.30;65.90;;;;;;5031120;28;21027;-87
2021/03/03 03:57:49;;;;;;;25.13;10.18;;;7.20;66.00;;;;;;5030913;28;20474;-88
2021/03/03 04:00:20;;;;;;;20.23;9.38;;;7.40;65.10;;;;;;5032436;28;20868;-86
2021/03/03 04:02:47;;;;;;;26.05;9.93;;;7.40;65.30;;;;;;5032838;28;20429;-87
2021/03/03 04:05:14;;;;;;;24.63;9.70;;;7.20;65.80;;;;;;5032422;28;20482;-87
2021/03/03 04:07:40;;;;;;;24.80;9.77;;;7.20;66.10;;;;;;5031618;28;20379;-87
2021/03/03 04:10:09;;;;;;;24.52;10.23;;;7.20;66.10;;;;;;5032151;28;20823;-88
2021/03/03 04:12:34;;;;;;;27.10;9.57;;;7.00;66.80;;;;;;5031879;28;20387;-87
2021/03/03 04:15:00;;;;;;;19.08;8.95;;;7.00;66.90;;;;;;5032395;28;20913;-87
2021/03/03 04:17:25;;;;;;;22.73;9.00;;;6.90;66.90;;;;;;5031571;28;20379;-86
2021/03/03 04:19:51;;;;;;;27.92;9.60;;;7.00;66.90;;;;;;5032317;28;20423;-88
2021/03/03 04:22:16;;;;;;;25.47;9.93;;;6.80;68.20;;;;;;5030667;28;20729;-87
2021/03/03 04:24:42;;;;;;;25.87;9.70;;;6.80;68.20;;;;;;5032488;28;20837;-87
2021/03/03 04:27:07;;;;;;;24.83;9.90;;;6.70;68.40;;;;;;5031595;28;20383;-87
2021/03/03 04:29:33;;;;;;;24.30;9.70;;;6.70;68.60;;;;;;5030305;28;20415;-87
2021/03/03 04:31:58;;;;;;;27.53;10.43;;;6.50;69.20;;;;;;5031857;28;20387;-87
2021/03/03 04:34:24;;;;;;;27.20;11.00;;;6.60;69.20;;;;;;5030962;28;20466;-87
2021/03/03 04:36:49;;;;;;;26.48;11.60;;;6.40;69.50;;;;;;5030021;28;20415;-88
2021/03/03 04:39:15;;;;;;;25.77;10.03;;;6.40;69.30;;;;;;5030386;28;20480;-87
2021/03/03 04:41:40;;;;;;;37.00;10.07;;;6.40;69.90;;;;;;5032031;28;20391;-87
2021/03/03 04:44:06;;;;;;;27.57;10.37;;;6.40;70.20;;;;;;5031541;28;20398;-86
2021/03/03 04:46:31;;;;;;;28.03;10.70;;;6.30;70.50;;;;;;5031569;28;20385;-87
2021/03/03 04:48:57;;;;;;;24.98;10.82;;;6.20;70.60;;;;;;5031117;28;20379;-87
2021/03/03 04:51:22;;;;;;;27.33;10.48;;;6.20;70.80;;;;;;5032119;28;20422;-87
2021/03/03 04:53:48;;;;;;;27.83;10.77;;;6.10;71.30;;;;;;5031224;28;20442;-87
2021/03/03 04:56:14;;;;;;;34.43;11.03;;;6.10;71.20;;;;;;5030253;28;20391;-87
2021/03/03 04:58:39;;;;;;;27.53;10.97;;;6.00;71.80;;;;;;5030532;28;20385;-87
2021/03/03 05:01:04;;;;;;;27.53;10.60;;;6.00;71.40;;;;;;5031316;28;20430;-88
2021/03/03 05:03:30;;;;;;;24.20;9.97;;;6.00;71.80;;;;;;5031259;28;20959;-88
2021/03/03 05:05:56;;;;;;;27.15;10.63;;;5.90;71.80;;;;;;5031425;28;20389;-87
2021/03/03 05:08:21;;;;;;;25.88;11.18;;;5.90;72.20;;;;;;5030531;28;20732;-86
2021/03/03 05:10:47;;;;;;;33.53;11.40;;;6.00;71.30;;;;;;5029719;28;20411;-87
2021/03/03 05:13:16;;;;;;;30.47;11.37;;;5.90;72.00;;;;;;5030099;28;20399;-87
2021/03/03 05:15:42;;;;;;;27.07;11.00;;;5.90;72.20;;;;;;5029715;28;20431;-88
2021/03/03 05:18:10;;;;;;;26.88;10.75;;;5.90;72.30;;;;;;5030828;28;20406;-87
2021/03/03 05:20:36;;;;;;;30.52;10.95;;;5.80;72.60;;;;;;5030716;28;20383;-87
2021/03/03 05:23:02;;;;;;;31.58;10.82;;;5.80;72.60;;;;;;5029252;28;20399;-87
2021/03/03 05:25:27;;;;;;;23.90;10.65;;;5.90;72.00;;;;;;5029153;28;20391;-87
2021/03/03 05:27:54;;;;;;;32.97;11.10;;;6.00;71.70;;;;;;5030526;28;20399;-88
2021/03/03 05:30:20;;;;;;;31.02;10.73;;;5.90;72.50;;;;;;5030828;28;20952;-88
2021/03/03 05:32:45;;;;;;;27.58;10.95;;;5.90;72.10;;;;;;5028091;28;20395;-87
2021/03/03 05:35:11;;;;;;;27.03;10.73;;;5.80;72.20;;;;;;5029755;28;20454;-87
2021/03/03 05:37:37;;;;;;;22.02;10.50;;;5.80;72.70;;;;;;5030309;28;20391;-84
2021/03/03 05:40:03;;;;;;;27.52;10.50;;;5.90;72.20;;;;;;5029974;28;20970;-87
2021/03/03 05:42:28;;;;;;;30.75;10.50;;;5.90;72.20;;;;;;5028828;28;20817;-87
2021/03/03 05:44:56;;;;;;;25.33;10.43;;;5.90;72.10;;;;;;5030415;28;20876;-87
2021/03/03 05:47:22;;;;;;;24.08;10.02;;;6.00;71.30;;;;;;5010362;28;20404;-87
2021/03/03 05:49:51;;;;;;;23.60;10.82;;;6.10;71.10;;;;;;5011059;28;20430;-86
2021/03/03 05:52:18;;;;;;;31.83;10.32;;;6.10;71.10;;;;;;5010345;28;20386;-86
2021/03/03 05:54:45;;;;;;;26.92;10.43;;;6.10;71.00;;;;;;5011024;28;20377;-87
2021/03/03 05:57:12;;;;;;;24.52;10.43;;;6.10;71.30;;;;;;5010392;28;20428;-87
2021/03/03 05:59:39;;;;;;;25.08;10.88;;;5.90;71.90;;;;;;5025697;28;20404;-87
2021/03/03 06:02:05;;;;;;;24.75;11.25;;;5.90;71.70;;;;;;5010878;28;20384;-86
2021/03/03 06:04:31;;;;;;;27.85;10.85;;;5.90;71.50;;;;;;5025667;28;20392;-87
2021/03/03 06:06:58;;;;;;;23.17;11.00;;;6.00;71.70;;;;;;5009155;28;20400;-87
2021/03/03 06:09:24;;;;;;;30.65;12.45;;;5.90;72.30;;;;;;5010062;28;20841;-87
2021/03/03 06:11:50;;;;;;;28.88;11.27;;;5.90;72.30;;;;;;5042319;28;20480;-87
2021/03/03 06:14:15;;;;;;;31.20;10.90;;;6.00;71.70;;;;;;5010245;28;20683;-86
2021/03/03 06:16:41;;;;;;;34.37;11.23;;;5.90;71.60;;;;;;5008976;28;20385;-87
2021/03/03 06:19:07;;;;;;;24.80;10.37;;;5.90;72.40;;;;;;5025498;28;20410;-87
2021/03/03 06:21:33;;;;;;;35.42;10.38;;;5.80;72.50;;;;;;5042382;28;20389;-87
2021/03/03 06:24:05;;;;;;;31.47;10.50;;;5.90;72.40;;;;;;5008998;28;20473;-87
2021/03/03 06:26:32;;;;;;;29.77;10.57;;;5.80;72.70;;;;;;5009894;28;20450;-87
2021/03/03 06:28:58;;;;;;;29.10;11.17;;;5.70;73.20;;;;;;5008937;28;20405;-87
2021/03/03 06:31:39;;;;;;;26.65;10.98;;;5.70;73.10;;;;;;5010334;28;20396;-87
2021/03/03 06:34:24;;;;;;;29.42;11.13;;;5.60;73.80;;;;;;5009371;28;20393;-86
2021/03/03 06:36:55;;;;;;;31.05;11.40;;;5.70;73.40;;;;;;5009853;28;20391;-88
2021/03/03 06:39:21;;;;;;;25.42;11.43;;;5.70;73.00;;;;;;5025889;28;20507;-88
2021/03/03 06:41:48;;;;;;;38.92;11.50;;;5.60;73.40;;;;;;5010529;28;20905;-87
2021/03/03 06:44:14;;;;;;;46.95;11.95;;;5.50;74.40;;;;;;5010643;28;20385;-88
2021/03/03 06:46:40;;;;;;;33.97;11.67;;;5.40;74.90;;;;;;5009612;28;20552;-87
2021/03/03 06:49:20;;;;;;;30.20;11.27;;;5.40;75.50;;;;;;5008292;28;20604;-87
2021/03/03 06:51:47;;;;;;;35.15;12.15;;;5.40;75.00;;;;;;5022906;28;20396;-87
2021/03/03 06:54:18;;;;;;;31.20;11.25;;;5.40;75.30;;;;;;5028358;28;20396;-87
2021/03/03 06:56:44;;;;;;;33.47;11.43;;;5.50;74.90;;;;;;5012525;28;20785;-86
2021/03/03 06:59:23;;;;;;;36.80;11.60;;;5.40;75.50;;;;;;5013831;28;20377;-87
2021/03/03 07:01:53;;;;;;;29.88;10.80;;;5.30;75.60;;;;;;5013910;28;20547;-87
2021/03/03 07:04:24;;;;;;;33.30;11.77;;;5.40;76.10;;;;;;5028917;28;20754;-87
2021/03/03 07:06:50;;;;;;;27.85;10.80;;;5.40;75.70;;;;;;5013117;28;20393;-86
2021/03/03 07:09:16;;;;;;;37.50;11.63;;;5.40;76.60;;;;;;5045701;28;20890;-87
2021/03/03 07:11:43;;;;;;;45.37;11.77;;;5.40;76.20;;;;;;5013368;28;20389;-86
2021/03/03 07:14:13;;;;;;;33.70;10.63;;;5.40;76.80;;;;;;5013454;28;20387;-86
2021/03/03 07:17:03;;;;;;;32.72;10.45;;;5.50;75.60;;;;;;5012576;28;20492;-86
2021/03/03 07:19:29;;;;;;;44.03;11.38;;;5.50;75.50;;;;;;5012095;28;20749;-87
2021/03/03 07:21:54;;;;;;;40.92;12.20;;;5.50;76.30;;;;;;5013196;28;20385;-87
2021/03/03 07:24:21;;;;;;;26.75;10.43;;;5.60;76.10;;;;;;5013410;28;20377;-87
2021/03/03 07:26:48;;;;;;;39.13;11.55;;;5.70;75.70;;;;;;5012684;28;20389;-87
2021/03/03 07:29:14;;;;;;;46.85;10.75;;;5.80;74.90;;;;;;5013162;28;20416;-86
2021/03/03 07:31:40;;;;;;;43.70;11.10;;;5.80;75.90;;;;;;5013132;28;20388;-87
2021/03/03 07:34:10;;;;;;;35.87;11.43;;;5.80;75.80;;;;;;5011667;28;20385;-86
2021/03/03 07:36:37;;;;;;;54.65;11.30;;;5.80;76.20;;;;;;5012585;28;20397;-86
2021/03/03 07:39:04;;;;;;;57.65;12.07;;;5.90;76.50;;;;;;5012947;28;20385;-87
2021/03/03 07:41:38;;;;;;;51.50;12.43;;;5.90;76.70;;;;;;5013161;28;20951;-87
2021/03/03 07:44:04;;;;;;;47.70;13.00;;;6.00;76.10;;;;;;5012825;28;20392;-86
2021/03/03 07:46:30;;;;;;;38.38;11.15;;;6.00;76.40;;;;;;5017232;28;20382;-86
2021/03/03 07:48:56;;;;;;;46.90;12.50;;;6.00;75.70;;;;;;5029443;28;20816;-86
2021/03/03 07:51:22;;;;;;;36.47;11.13;;;6.30;75.10;;;;;;5032339;28;20383;-85
2021/03/03 07:53:48;;;;;;;36.30;10.95;;;6.40;73.10;;;;;;5031926;28;20732;-85
2021/03/03 07:56:16;;;;;;;25.80;10.43;;;6.60;72.80;;;;;;5032428;28;20387;-86
2021/03/03 07:58:42;;;;;;;31.70;12.43;;;6.80;72.70;;;;;;5031094;28;20386;-85
2021/03/03 08:01:10;;;;;;;30.50;10.63;;;6.80;72.00;;;;;;5031851;28;20691;-85
2021/03/03 08:03:47;;;;;;;30.05;10.57;;;7.10;71.20;;;;;;5032067;28;20855;-85
2021/03/03 08:06:36;;;;;;;30.60;11.52;;;7.30;69.20;;;;;;5032689;28;20375;-85
2021/03/03 08:09:11;;;;;;;27.58;9.98;;;7.70;68.30;;;;;;5030695;28;20942;-85
2021/03/03 08:11:39;;;;;;;33.63;11.25;;;7.70;68.40;;;;;;5031997;28;20391;-85
2021/03/03 08:14:28;;;;;;;24.90;10.05;;;7.90;67.60;;;;;;5032080;28;20380;-85
2021/03/03 08:16:55;;;;;;;32.78;10.27;;;8.60;62.40;;;;;;5031517;28;20426;-85
2021/03/03 08:19:21;;;;;;;30.00;10.60;;;8.60;63.40;;;;;;5031526;28;20391;-85
2021/03/03 08:21:48;;;;;;;27.47;9.53;;;8.90;61.80;;;;;;5030394;28;20396;-86
2021/03/03 08:24:37;;;;;;;28.42;10.25;;;9.00;63.00;;;;;;5030274;28;20387;-85
2021/03/03 08:27:23;;;;;;;26.75;10.70;;;8.90;62.10;;;;;;5031200;28;20478;-85
2021/03/03 08:30:09;;;;;;;23.05;9.82;;;9.20;60.70;;;;;;5030542;28;20434;-85
2021/03/03 08:32:35;;;;;;;30.40;11.10;;;9.40;59.40;;;;;;5031230;28;20384;-87
2021/03/03 08:35:00;;;;;;;29.52;10.38;;;9.30;59.70;;;;;;5031319;28;20957;-87
2021/03/03 08:37:31;;;;;;;27.63;10.13;;;9.50;59.50;;;;;;5030560;28;20414;-86
2021/03/03 08:39:58;;;;;;;27.85;10.18;;;9.40;58.80;;;;;;5029970;28;20457;-87
2021/03/03 08:42:32;;;;;;;31.70;10.77;;;9.60;59.90;;;;;;5029782;28;20438;-87
2021/03/03 08:45:07;;;;;;;30.35;11.43;;;9.70;60.20;;;;;;5030071;28;20427;-86
2021/03/03 08:47:47;;;;;;;29.02;11.00;;;9.70;58.80;;;;;;5030580;28;20453;-86
2021/03/03 08:50:37;;;;;;;32.35;11.25;;;9.70;59.10;;;;;;5030996;28;20456;-86
2021/03/03 08:53:22;;;;;;;26.00;10.60;;;9.70;59.60;;;;;;5031033;28;20395;-87
2021/03/03 08:55:48;;;;;;;26.55;10.50;;;10.00;58.60;;;;;;5030639;28;20384;-86
2021/03/03 08:58:46;;;;;;;26.35;10.43;;;10.20;57.10;;;;;;5029242;28;20394;-86
2021/03/03 09:01:11;;;;;;;29.75;10.73;;;10.20;57.70;;;;;;5028996;28;20391;-86
2021/03/03 09:03:37;;;;;;;28.95;10.90;;;10.20;58.30;;;;;;5030664;28;20383;-87
2021/03/03 09:06:03;;;;;;;26.08;12.00;;;10.40;58.00;;;;;;5009657;28;20397;-86
2021/03/03 09:08:29;;;;;;;33.08;12.07;;;10.60;56.00;;;;;;5010511;28;20389;-87
2021/03/03 09:10:54;;;;;;;29.80;11.13;;;10.60;57.30;;;;;;5011030;28;20414;-86
2021/03/03 09:13:25;;;;;;;31.52;11.60;;;10.70;56.50;;;;;;5009610;28;20396;-87
2021/03/03 09:16:05;;;;;;;29.67;13.30;;;10.80;56.70;;;;;;5009107;28;20389;-86
2021/03/03 09:18:31;;;;;;;33.88;11.35;;;11.10;55.90;;;;;;5008944;28;20877;-87
2021/03/03 09:21:08;;;;;;;30.58;11.35;;;11.40;55.70;;;;;;5009832;28;20768;-87
2021/03/03 09:23:35;;;;;;;34.38;13.75;;;11.40;55.10;;;;;;5010977;28;20400;-86
2021/03/03 09:26:01;;;;;;;30.40;12.60;;;11.60;54.80;;;;;;5010338;28;20408;-86
2021/03/03 09:28:42;;;;;;;33.60;12.63;;;11.80;54.80;;;;;;5010542;28;20444;-85
2021/03/03 09:31:08;;;;;;;27.98;12.13;;;11.80;52.80;;;;;;5009628;28;20963;-86
2021/03/03 09:33:34;;;;;;;23.95;12.07;;;11.90;54.20;;;;;;5011695;28;20489;-86
2021/03/03 09:36:01;;;;;;;30.40;12.45;;;11.90;53.40;;;;;;5028989;28;20418;-86
2021/03/03 09:38:29;;;;;;;24.87;11.80;;;11.80;54.40;;;;;;5030305;28;20457;-86
2021/03/03 09:40:56;;;;;;;29.98;12.57;;;11.90;53.90;;;;;;5029980;28;20445;-87
2021/03/03 09:43:21;;;;;;;30.42;12.38;;;12.10;53.40;;;;;;5030430;28;20375;-87
2021/03/03 09:45:53;;;;;;;34.03;12.38;;;12.10;54.20;;;;;;5030218;28;20732;-86
2021/03/03 09:48:26;;;;;;;31.08;13.52;;;12.10;52.90;;;;;;5026919;28;20399;-86
2021/03/03 09:50:52;;;;;;;29.88;13.00;;;12.10;54.10;;;;;;5029052;28;20411;-85
2021/03/03 09:53:17;;;;;;;32.15;13.30;;;12.10;53.60;;;;;;5031010;28;20389;-86
2021/03/03 09:55:43;;;;;;;34.25;12.77;;;12.10;54.60;;;;;;5030270;28;20381;-86
2021/03/03 09:58:10;;;;;;;34.13;13.32;;;12.40;54.00;;;;;;5030028;28;20431;-85
2021/03/03 10:00:40;;;;;;;34.75;13.85;;;12.30;53.70;;;;;;5030868;28;20390;-86
2021/03/03 10:03:15;;;;;;;37.85;14.85;;;12.40;52.80;;;;;;5028945;28;20388;-88
2021/03/03 10:05:42;;;;;;;38.63;13.40;;;12.40;55.00;;;;;;5029237;28;20387;-85
2021/03/03 10:08:10;;;;;;;34.20;14.25;;;12.40;53.00;;;;;;5028627;28;20387;-85
2021/03/03 10:10:38;;;;;;;32.75;14.57;;;12.50;54.60;;;;;;5030639;28;20995;-86
2021/03/03 10:13:05;;;;;;;39.05;14.93;;;12.40;55.10;;;;;;5028558;28;20406;-86
2021/03/03 10:15:35;;;;;;;34.55;13.52;;;12.50;53.40;;;;;;5029091;28;20410;-86
2021/03/03 10:18:05;;;;;;;36.35;15.18;;;13.00;53.20;;;;;;5028280;28;20382;-86
2021/03/03 10:20:31;;;;;;;33.05;14.77;;;12.90;53.90;;;;;;5027637;28;20445;-86
2021/03/03 10:22:58;;;;;;;43.10;15.90;;;13.30;53.30;;;;;;5027616;28;20387;-86
2021/03/03 10:25:31;;;;;;;31.70;15.20;;;13.40;51.60;;;;;;5027600;28;20771;-86
2021/03/03 10:28:11;;;;;;;34.70;16.17;;;13.50;51.70;;;;;;5028104;28;20398;-86
2021/03/03 10:30:48;;;;;;;40.28;16.70;;;13.50;52.00;;;;;;5029632;28;20411;-86
2021/03/03 10:33:41;;;;;;;39.20;16.92;;;13.60;53.00;;;;;;5030888;28;20395;-86
2021/03/03 10:36:17;;;;;;;50.22;20.13;;;13.80;52.10;;;;;;5031287;28;20461;-86
2021/03/03 10:38:53;;;;;;;43.78;18.88;;;14.00;52.70;;;;;;5027237;28;20399;-86
2021/03/03 10:41:33;;;;;;;43.22;21.63;;;14.50;50.70;;;;;;5031561;28;20426;-86
2021/03/03 10:44:08;;;;;;;51.95;23.38;;;14.30;51.00;;;;;;5030678;28;20402;-86
2021/03/03 10:46:43;;;;;;;48.60;23.33;;;14.30;51.40;;;;;;5028264;28;20399;-85
2021/03/03 10:49:14;;;;;;;55.95;25.42;;;14.40;52.10;;;;;;5031418;28;20716;-86
2021/03/03 10:51:40;;;;;;;57.72;26.05;;;14.30;51.80;;;;;;5031685;28;20379;-86
2021/03/03 10:54:07;;;;;;;55.13;27.35;;;14.40;51.40;;;;;;5031861;28;20409;-87
2021/03/03 10:56:41;;;;;;;55.60;26.45;;;13.90;53.40;;;;;;5031645;28;20390;-85
2021/03/03 10:59:11;;;;;;;55.67;25.25;;;14.40;52.50;;;;;;5031651;28;20387;-87
2021/03/03 11:01:42;;;;;;;48.07;24.27;;;14.40;52.50;;;;;;5031094;28;20438;-87
2021/03/03 11:04:10;;;;;;;55.65;25.17;;;14.10;51.80;;;;;;5031935;28;20390;-87
2021/03/03 11:06:36;;;;;;;50.83;24.23;;;14.30;53.50;;;;;;5031174;28;20375;-87
2021/03/03 11:09:05;;;;;;;52.83;25.48;;;14.80;50.50;;;;;;5031483;28;20387;-86
2021/03/03 11:11:31;;;;;;;55.47;25.15;;;14.80;51.20;;;;;;5030357;28;20449;-87
2021/03/03 11:13:56;;;;;;;44.13;24.23;;;14.40;51.80;;;;;;5030467;28;20399;-88
2021/03/03 11:16:22;;;;;;;57.80;24.88;;;14.40;53.30;;;;;;5030265;28;20775;-88
2021/03/03 11:18:49;;;;;;;53.07;24.80;;;14.90;51.30;;;;;;5031459;28;20375;-86
2021/03/03 11:21:14;;;;;;;58.40;23.23;;;14.60;51.20;;;;;;5030270;28;20391;-86
2021/03/03 11:23:40;;;;;;;48.58;23.35;;;14.60;51.40;;;;;;5031349;28;20887;-87
2021/03/03 11:26:05;;;;;;;57.07;23.60;;;14.70;51.20;;;;;;5030278;28;20483;-86
2021/03/03 11:28:31;;;;;;;52.63;24.80;;;14.80;50.80;;;;;;5030980;28;20397;-86
2021/03/03 11:30:56;;;;;;;49.42;24.15;;;15.10;50.10;;;;;;5031324;28;20411;-85
2021/03/03 11:33:22;;;;;;;49.17;25.23;;;15.20;50.80;;;;;;5027450;28;20880;-86
2021/03/03 11:35:48;;;;;;;48.13;23.50;;;14.60;52.60;;;;;;5030784;28;20724;-87
2021/03/03 11:38:14;;;;;;;51.58;24.17;;;15.00;51.60;;;;;;5030385;28;20424;-86
2021/03/03 11:40:40;;;;;;;43.15;22.83;;;15.10;50.60;;;;;;5029814;28;20393;-87
2021/03/03 11:43:06;;;;;;;54.15;25.00;;;15.20;51.50;;;;;;5031102;28;20380;-87
2021/03/03 11:45:32;;;;;;;48.40;23.42;;;15.20;50.20;;;;;;5031427;28;20387;-87
2021/03/03 11:47:58;;;;;;;52.50;22.55;;;15.20;50.40;;;;;;5029301;28;20394;-86
2021/03/03 11:50:24;;;;;;;47.22;22.98;;;15.00;50.50;;;;;;5028609;28;20411;-87
2021/03/03 11:52:50;;;;;;;52.42;24.48;;;15.00;50.80;;;;;;5029694;28;20387;-86
2021/03/03 11:55:16;;;;;;;42.50;22.10;;;14.80;50.60;;;;;;5030790;28;20383;-86
2021/03/03 11:57:41;;;;;;;49.53;22.27;;;15.30;50.50;;;;;;5029240;28;20395;-87
2021/03/03 12:00:10;;;;;;;50.22;22.20;;;15.30;49.00;;;;;;5030718;28;20375;-87
2021/03/03 12:02:36;;;;;;;54.47;24.45;;;15.20;50.00;;;;;;5029336;28;20788;-86
2021/03/03 12:05:02;;;;;;;45.35;21.92;;;15.60;49.10;;;;;;5029296;28;20387;-86
2021/03/03 12:07:28;;;;;;;49.00;24.20;;;15.40;49.40;;;;;;5029340;28;20391;-86
2021/03/03 12:09:53;;;;;;;47.38;22.48;;;15.10;50.30;;;;;;5029474;28;20426;-86
2021/03/03 12:12:19;;;;;;;46.53;22.92;;;15.20;50.40;;;;;;5030589;28;20383;-85
2021/03/03 12:14:45;;;;;;;50.03;22.73;;;15.50;50.10;;;;;;5030268;28;20414;-86
2021/03/03 12:17:11;;;;;;;43.15;22.52;;;15.40;49.60;;;;;;5030045;28;20415;-86
2021/03/03 12:19:36;;;;;;;52.70;22.20;;;15.40;49.40;;;;;;5030497;28;20385;-86
2021/03/03 12:22:03;;;;;;;44.20;21.40;;;15.60;49.60;;;;;;5029403;28;20802;-86
2021/03/03 12:24:29;;;;;;;53.53;21.17;;;15.40;48.70;;;;;;5029331;28;20400;-86
2021/03/03 12:26:54;;;;;;;50.60;22.50;;;15.70;48.10;;;;;;5028554;28;20395;-86
2021/03/03 12:29:20;;;;;;;50.07;22.07;;;15.80;47.50;;;;;;5030149;28;20478;-86
2021/03/03 12:31:46;;;;;;;44.38;21.35;;;15.50;48.90;;;;;;5031128;28;20391;-86
2021/03/03 12:34:11;;;;;;;47.33;22.42;;;16.00;48.90;;;;;;5031833;28;20377;-86
2021/03/03 12:36:37;;;;;;;46.90;22.53;;;15.80;48.80;;;;;;5030186;28;20430;-86
2021/03/03 12:39:03;;;;;;;51.10;22.27;;;15.60;49.50;;;;;;5029423;28;20793;-86
2021/03/03 12:41:28;;;;;;;50.13;22.30;;;16.00;48.10;;;;;;5029020;28;20717;-87
2021/03/03 12:43:54;;;;;;;43.15;21.92;;;15.60;47.90;;;;;;5030483;28;20456;-87